sensor_id;sensor_type;location;lat;lon;timestamp;temperature;humidity
33988;DHT22;37428;53.580;-1.666;2022-07-18T00:01:34;24.80;39.50
33988;DHT22;37428;53.580;-1.666;2022-07-18T00:04:38;24.70;39.70
33988;DHT22;37428;53.580;-1.666;2022-07-18T00:07:43;24.70;39.60
33988;DHT22;37428;53.580;-1.666;2022-07-18T00:10:45;24.70;39.50
33988;DHT22;37428;53.580;-1.666;2022-07-18T00:13:47;24.70;39.40
33988;DHT22;37428;53.580;-1.666;2022-07-18T00:16:52;24.70;39.30
33988;DHT22;37428;53.580;-1.666;2022-07-18T00:19:57;24.70;39.30
33988;DHT22;37428;53.580;-1.666;2022-07-18T00:23:01;24.70;39.30
33988;DHT22;37428;53.580;-1.666;2022-07-18T00:26:09;24.60;39.20
33988;DHT22;37428;53.580;-1.666;2022-07-18T00:29:11;24.60;39.10
33988;DHT22;37428;53.580;-1.666;2022-07-18T00:32:13;24.60;39.00
33988;DHT22;37428;53.580;-1.666;2022-07-18T00:35:17;24.50;38.70
33988;DHT22;37428;53.580;-1.666;2022-07-18T00:38:19;24.50;38.40
33988;DHT22;37428;53.580;-1.666;2022-07-18T00:41:23;24.50;38.40
33988;DHT22;37428;53.580;-1.666;2022-07-18T00:44:26;24.50;37.90
33988;DHT22;37428;53.580;-1.666;2022-07-18T00:47:39;24.40;37.70
33988;DHT22;37428;53.580;-1.666;2022-07-18T00:50:44;24.40;37.30
33988;DHT22;37428;53.580;-1.666;2022-07-18T00:53:48;24.40;37.30
33988;DHT22;37428;53.580;-1.666;2022-07-18T00:56:51;24.40;37.10
33988;DHT22;37428;53.580;-1.666;2022-07-18T00:59:54;24.40;36.90
33988;DHT22;37428;53.580;-1.666;2022-07-18T01:03:16;24.30;36.70
33988;DHT22;37428;53.580;-1.666;2022-07-18T01:06:20;24.30;36.80
33988;DHT22;37428;53.580;-1.666;2022-07-18T01:09:24;24.30;36.60
33988;DHT22;37428;53.580;-1.666;2022-07-18T01:12:26;24.30;36.70
33988;DHT22;37428;53.580;-1.666;2022-07-18T01:15:28;24.20;36.80
33988;DHT22;37428;53.580;-1.666;2022-07-18T01:18:31;24.20;36.80
33988;DHT22;37428;53.580;-1.666;2022-07-18T01:21:38;24.10;37.00
33988;DHT22;37428;53.580;-1.666;2022-07-18T01:24:42;24.10;37.20
33988;DHT22;37428;53.580;-1.666;2022-07-18T01:27:45;24.00;37.30
33988;DHT22;37428;53.580;-1.666;2022-07-18T01:30:47;24.10;37.40
33988;DHT22;37428;53.580;-1.666;2022-07-18T01:33:54;24.00;37.40
33988;DHT22;37428;53.580;-1.666;2022-07-18T01:37:08;23.90;37.30
33988;DHT22;37428;53.580;-1.666;2022-07-18T01:40:14;23.90;37.50
33988;DHT22;37428;53.580;-1.666;2022-07-18T01:43:16;23.90;37.60
33988;DHT22;37428;53.580;-1.666;2022-07-18T01:46:20;23.80;37.60
33988;DHT22;37428;53.580;-1.666;2022-07-18T01:49:29;23.80;37.70
33988;DHT22;37428;53.580;-1.666;2022-07-18T01:52:33;23.80;37.70
33988;DHT22;37428;53.580;-1.666;2022-07-18T01:55:41;23.70;37.70
33988;DHT22;37428;53.580;-1.666;2022-07-18T01:58:43;23.70;37.70
33988;DHT22;37428;53.580;-1.666;2022-07-18T02:01:47;23.70;37.70
33988;DHT22;37428;53.580;-1.666;2022-07-18T02:04:49;23.70;37.80
33988;DHT22;37428;53.580;-1.666;2022-07-18T02:08:06;23.70;37.70
33988;DHT22;37428;53.580;-1.666;2022-07-18T02:11:08;23.60;37.70
33988;DHT22;37428;53.580;-1.666;2022-07-18T02:14:10;23.60;37.80
33988;DHT22;37428;53.580;-1.666;2022-07-18T02:17:16;23.60;37.60
33988;DHT22;37428;53.580;-1.666;2022-07-18T02:20:19;23.60;37.60
33988;DHT22;37428;53.580;-1.666;2022-07-18T02:23:25;23.60;37.60
33988;DHT22;37428;53.580;-1.666;2022-07-18T02:26:30;23.70;37.50
33988;DHT22;37428;53.580;-1.666;2022-07-18T02:29:34;23.60;37.60
33988;DHT22;37428;53.580;-1.666;2022-07-18T02:32:36;23.60;37.60
33988;DHT22;37428;53.580;-1.666;2022-07-18T02:35:40;23.60;37.50
33988;DHT22;37428;53.580;-1.666;2022-07-18T02:38:44;23.60;37.40
33988;DHT22;37428;53.580;-1.666;2022-07-18T02:41:48;23.60;37.30
33988;DHT22;37428;53.580;-1.666;2022-07-18T02:44:52;23.50;37.00
33988;DHT22;37428;53.580;-1.666;2022-07-18T02:47:54;23.50;36.70
33988;DHT22;37428;53.580;-1.666;2022-07-18T02:51:06;23.50;36.50
33988;DHT22;37428;53.580;-1.666;2022-07-18T02:54:19;23.50;36.10
33988;DHT22;37428;53.580;-1.666;2022-07-18T02:57:22;23.50;35.90
33988;DHT22;37428;53.580;-1.666;2022-07-18T03:00:26;23.50;35.50
33988;DHT22;37428;53.580;-1.666;2022-07-18T03:03:28;23.50;35.30
33988;DHT22;37428;53.580;-1.666;2022-07-18T03:06:30;23.50;35.10
33988;DHT22;37428;53.580;-1.666;2022-07-18T03:09:34;23.50;34.80
33988;DHT22;37428;53.580;-1.666;2022-07-18T03:12:43;23.40;34.60
33988;DHT22;37428;53.580;-1.666;2022-07-18T03:15:51;23.40;34.50
33988;DHT22;37428;53.580;-1.666;2022-07-18T03:18:56;23.40;34.50
33988;DHT22;37428;53.580;-1.666;2022-07-18T03:21:58;23.40;34.30
33988;DHT22;37428;53.580;-1.666;2022-07-18T03:25:06;23.40;34.20
33988;DHT22;37428;53.580;-1.666;2022-07-18T03:28:08;23.50;34.10
33988;DHT22;37428;53.580;-1.666;2022-07-18T03:31:12;23.50;34.00
33988;DHT22;37428;53.580;-1.666;2022-07-18T03:34:18;23.50;34.10
33988;DHT22;37428;53.580;-1.666;2022-07-18T03:37:31;23.40;33.80
33988;DHT22;37428;53.580;-1.666;2022-07-18T03:40:36;23.50;33.90
33988;DHT22;37428;53.580;-1.666;2022-07-18T03:43:41;23.40;33.80
33988;DHT22;37428;53.580;-1.666;2022-07-18T03:46:50;23.40;34.00
33988;DHT22;37428;53.580;-1.666;2022-07-18T03:49:56;23.40;34.20
33988;DHT22;37428;53.580;-1.666;2022-07-18T03:53:00;23.40;34.30
33988;DHT22;37428;53.580;-1.666;2022-07-18T03:56:05;23.30;34.80
33988;DHT22;37428;53.580;-1.666;2022-07-18T03:59:08;23.40;34.80
33988;DHT22;37428;53.580;-1.666;2022-07-18T04:02:10;23.30;35.00
33988;DHT22;37428;53.580;-1.666;2022-07-18T04:05:15;23.30;35.20
33988;DHT22;37428;53.580;-1.666;2022-07-18T04:08:18;23.20;35.70
33988;DHT22;37428;53.580;-1.666;2022-07-18T04:11:21;23.20;35.30
33988;DHT22;37428;53.580;-1.666;2022-07-18T04:14:26;23.10;35.10
33988;DHT22;37428;53.580;-1.666;2022-07-18T04:17:34;23.10;35.10
33988;DHT22;37428;53.580;-1.666;2022-07-18T04:20:37;23.10;35.10
33988;DHT22;37428;53.580;-1.666;2022-07-18T04:23:46;23.00;34.50
33988;DHT22;37428;53.580;-1.666;2022-07-18T04:26:59;23.00;34.40
33988;DHT22;37428;53.580;-1.666;2022-07-18T04:30:02;23.00;34.40
33988;DHT22;37428;53.580;-1.666;2022-07-18T04:33:08;23.00;33.80
33988;DHT22;37428;53.580;-1.666;2022-07-18T04:36:13;23.00;33.10
33988;DHT22;37428;53.580;-1.666;2022-07-18T04:39:19;23.00;32.70
33988;DHT22;37428;53.580;-1.666;2022-07-18T04:42:23;23.10;32.50
33988;DHT22;37428;53.580;-1.666;2022-07-18T04:45:31;23.10;32.30
33988;DHT22;37428;53.580;-1.666;2022-07-18T04:48:34;23.20;31.80
33988;DHT22;37428;53.580;-1.666;2022-07-18T04:51:37;23.20;31.70
33988;DHT22;37428;53.580;-1.666;2022-07-18T04:54:41;23.20;31.90
33988;DHT22;37428;53.580;-1.666;2022-07-18T04:57:45;23.10;31.80
33988;DHT22;37428;53.580;-1.666;2022-07-18T05:00:48;23.10;31.80
33988;DHT22;37428;53.580;-1.666;2022-07-18T05:03:59;23.20;31.60
33988;DHT22;37428;53.580;-1.666;2022-07-18T05:07:02;23.20;31.80
33988;DHT22;37428;53.580;-1.666;2022-07-18T05:10:07;23.20;32.10
33988;DHT22;37428;53.580;-1.666;2022-07-18T05:13:13;23.10;31.80
33988;DHT22;37428;53.580;-1.666;2022-07-18T05:16:17;23.20;31.80
33988;DHT22;37428;53.580;-1.666;2022-07-18T05:19:20;23.20;32.30
33988;DHT22;37428;53.580;-1.666;2022-07-18T05:22:22;23.30;32.70
33988;DHT22;37428;53.580;-1.666;2022-07-18T05:25:26;23.30;33.50
33988;DHT22;37428;53.580;-1.666;2022-07-18T05:28:30;23.30;32.10
33988;DHT22;37428;53.580;-1.666;2022-07-18T05:31:32;23.30;32.60
33988;DHT22;37428;53.580;-1.666;2022-07-18T05:34:36;23.30;32.50
33988;DHT22;37428;53.580;-1.666;2022-07-18T05:37:39;23.30;33.50
33988;DHT22;37428;53.580;-1.666;2022-07-18T05:40:42;23.40;32.60
33988;DHT22;37428;53.580;-1.666;2022-07-18T05:43:45;23.40;34.40
33988;DHT22;37428;53.580;-1.666;2022-07-18T05:46:52;23.50;35.20
33988;DHT22;37428;53.580;-1.666;2022-07-18T05:49:54;23.50;34.50
33988;DHT22;37428;53.580;-1.666;2022-07-18T05:52:58;23.50;33.80
33988;DHT22;37428;53.580;-1.666;2022-07-18T05:56:02;23.60;33.20
33988;DHT22;37428;53.580;-1.666;2022-07-18T05:59:06;23.70;32.10
33988;DHT22;37428;53.580;-1.666;2022-07-18T06:02:09;23.70;32.00
33988;DHT22;37428;53.580;-1.666;2022-07-18T06:05:11;23.80;32.90
33988;DHT22;37428;53.580;-1.666;2022-07-18T06:08:14;23.90;33.40
33988;DHT22;37428;53.580;-1.666;2022-07-18T06:11:16;24.00;32.80
33988;DHT22;37428;53.580;-1.666;2022-07-18T06:14:20;24.10;33.00
33988;DHT22;37428;53.580;-1.666;2022-07-18T06:17:23;24.20;33.20
33988;DHT22;37428;53.580;-1.666;2022-07-18T06:20:29;24.30;33.00
33988;DHT22;37428;53.580;-1.666;2022-07-18T06:23:35;24.30;32.70
33988;DHT22;37428;53.580;-1.666;2022-07-18T06:26:40;24.40;32.50
33988;DHT22;37428;53.580;-1.666;2022-07-18T06:29:45;24.60;33.50
33988;DHT22;37428;53.580;-1.666;2022-07-18T06:32:53;24.60;32.40
33988;DHT22;37428;53.580;-1.666;2022-07-18T06:35:57;24.80;34.20
33988;DHT22;37428;53.580;-1.666;2022-07-18T06:38:59;24.80;32.80
33988;DHT22;37428;53.580;-1.666;2022-07-18T06:42:04;24.90;33.20
33988;DHT22;37428;53.580;-1.666;2022-07-18T06:45:10;25.00;33.90
33988;DHT22;37428;53.580;-1.666;2022-07-18T06:48:14;25.00;32.50
33988;DHT22;37428;53.580;-1.666;2022-07-18T06:51:28;25.10;32.30
33988;DHT22;37428;53.580;-1.666;2022-07-18T06:54:31;25.10;33.40
33988;DHT22;37428;53.580;-1.666;2022-07-18T06:57:36;25.30;34.10
33988;DHT22;37428;53.580;-1.666;2022-07-18T07:00:40;25.30;34.40
33988;DHT22;37428;53.580;-1.666;2022-07-18T07:03:42;25.40;33.80
33988;DHT22;37428;53.580;-1.666;2022-07-18T07:06:50;25.40;33.10
33988;DHT22;37428;53.580;-1.666;2022-07-18T07:09:54;25.60;33.70
33988;DHT22;37428;53.580;-1.666;2022-07-18T07:12:58;25.70;33.20
33988;DHT22;37428;53.580;-1.666;2022-07-18T07:16:02;25.70;32.60
33988;DHT22;37428;53.580;-1.666;2022-07-18T07:19:04;25.70;32.70
33988;DHT22;37428;53.580;-1.666;2022-07-18T07:22:06;25.90;32.80
33988;DHT22;37428;53.580;-1.666;2022-07-18T07:25:09;25.90;31.40
33988;DHT22;37428;53.580;-1.666;2022-07-18T07:28:12;25.90;32.20
33988;DHT22;37428;53.580;-1.666;2022-07-18T07:31:20;25.90;30.20
33988;DHT22;37428;53.580;-1.666;2022-07-18T07:34:22;25.90;30.90
33988;DHT22;37428;53.580;-1.666;2022-07-18T07:37:24;25.80;29.90
33988;DHT22;37428;53.580;-1.666;2022-07-18T07:40:28;25.80;30.30
33988;DHT22;37428;53.580;-1.666;2022-07-18T07:43:31;25.80;29.70
33988;DHT22;37428;53.580;-1.666;2022-07-18T07:46:40;25.80;30.10
33988;DHT22;37428;53.580;-1.666;2022-07-18T07:49:43;25.80;30.50
33988;DHT22;37428;53.580;-1.666;2022-07-18T07:52:49;25.80;30.90
33988;DHT22;37428;53.580;-1.666;2022-07-18T07:55:52;26.00;30.00
33988;DHT22;37428;53.580;-1.666;2022-07-18T07:58:56;26.20;31.10
33988;DHT22;37428;53.580;-1.666;2022-07-18T08:02:02;26.50;30.50
33988;DHT22;37428;53.580;-1.666;2022-07-18T08:05:04;26.70;28.40
33988;DHT22;37428;53.580;-1.666;2022-07-18T08:08:07;26.90;28.40
33988;DHT22;37428;53.580;-1.666;2022-07-18T08:11:10;27.10;29.20
33988;DHT22;37428;53.580;-1.666;2022-07-18T08:14:12;27.30;29.00
33988;DHT22;37428;53.580;-1.666;2022-07-18T08:17:16;27.40;28.70
33988;DHT22;37428;53.580;-1.666;2022-07-18T08:20:20;27.50;28.10
33988;DHT22;37428;53.580;-1.666;2022-07-18T08:23:24;27.70;29.50
33988;DHT22;37428;53.580;-1.666;2022-07-18T08:26:41;27.90;29.30
33988;DHT22;37428;53.580;-1.666;2022-07-18T08:29:45;28.20;27.80
33988;DHT22;37428;53.580;-1.666;2022-07-18T08:33:05;28.40;28.70
33988;DHT22;37428;53.580;-1.666;2022-07-18T08:36:07;28.50;27.60
33988;DHT22;37428;53.580;-1.666;2022-07-18T08:39:11;28.60;28.60
33988;DHT22;37428;53.580;-1.666;2022-07-18T08:42:15;28.80;29.00
33988;DHT22;37428;53.580;-1.666;2022-07-18T08:45:25;28.90;27.70
33988;DHT22;37428;53.580;-1.666;2022-07-18T08:48:29;29.00;26.80
33988;DHT22;37428;53.580;-1.666;2022-07-18T08:51:32;29.10;27.60
33988;DHT22;37428;53.580;-1.666;2022-07-18T08:54:36;29.30;26.00
33988;DHT22;37428;53.580;-1.666;2022-07-18T08:57:40;29.30;25.90
33988;DHT22;37428;53.580;-1.666;2022-07-18T09:00:49;29.50;27.00
33988;DHT22;37428;53.580;-1.666;2022-07-18T09:03:54;29.70;26.60
33988;DHT22;37428;53.580;-1.666;2022-07-18T09:07:22;29.80;25.80
33988;DHT22;37428;53.580;-1.666;2022-07-18T09:10:40;30.10;26.60
33988;DHT22;37428;53.580;-1.666;2022-07-18T09:13:46;30.20;25.80
33988;DHT22;37428;53.580;-1.666;2022-07-18T09:17:06;30.50;25.10
33988;DHT22;37428;53.580;-1.666;2022-07-18T09:20:14;30.60;25.30
33988;DHT22;37428;53.580;-1.666;2022-07-18T09:23:28;30.90;25.50
33988;DHT22;37428;53.580;-1.666;2022-07-18T09:26:48;30.90;25.10
33988;DHT22;37428;53.580;-1.666;2022-07-18T09:30:14;31.10;25.30
33988;DHT22;37428;53.580;-1.666;2022-07-18T09:33:17;31.40;24.70
33988;DHT22;37428;53.580;-1.666;2022-07-18T09:36:37;31.50;23.00
33988;DHT22;37428;53.580;-1.666;2022-07-18T09:39:59;31.50;21.90
33988;DHT22;37428;53.580;-1.666;2022-07-18T09:43:16;31.60;21.70
33988;DHT22;37428;53.580;-1.666;2022-07-18T09:46:26;31.60;24.00
33988;DHT22;37428;53.580;-1.666;2022-07-18T09:49:29;31.60;24.50
33988;DHT22;37428;53.580;-1.666;2022-07-18T09:54:19;31.50;23.90
33988;DHT22;37428;53.580;-1.666;2022-07-18T09:56:29;31.60;23.40
33988;DHT22;37428;53.580;-1.666;2022-07-18T09:59:36;31.80;23.60
33988;DHT22;37428;53.580;-1.666;2022-07-18T10:02:40;32.10;23.60
33988;DHT22;37428;53.580;-1.666;2022-07-18T10:05:45;32.10;23.30
33988;DHT22;37428;53.580;-1.666;2022-07-18T10:08:50;32.00;22.70
33988;DHT22;37428;53.580;-1.666;2022-07-18T10:13:37;32.20;23.00
33988;DHT22;37428;53.580;-1.666;2022-07-18T10:15:29;32.20;22.60
33988;DHT22;37428;53.580;-1.666;2022-07-18T10:18:34;32.40;23.40
33988;DHT22;37428;53.580;-1.666;2022-07-18T10:21:39;32.60;22.60
33988;DHT22;37428;53.580;-1.666;2022-07-18T10:28:25;33.00;21.00
33988;DHT22;37428;53.580;-1.666;2022-07-18T10:31:28;32.90;21.40
33988;DHT22;37428;53.580;-1.666;2022-07-18T10:34:36;33.10;20.20
33988;DHT22;37428;53.580;-1.666;2022-07-18T10:37:40;33.10;21.10
33988;DHT22;37428;53.580;-1.666;2022-07-18T10:41:03;33.20;21.30
33988;DHT22;37428;53.580;-1.666;2022-07-18T10:44:34;33.50;20.60
33988;DHT22;37428;53.580;-1.666;2022-07-18T10:47:41;33.70;19.70
33988;DHT22;37428;53.580;-1.666;2022-07-18T10:51:01;34.10;19.40
33988;DHT22;37428;53.580;-1.666;2022-07-18T10:54:11;34.40;19.70
33988;DHT22;37428;53.580;-1.666;2022-07-18T10:57:17;34.80;20.00
33988;DHT22;37428;53.580;-1.666;2022-07-18T11:00:31;34.90;17.90
33988;DHT22;37428;53.580;-1.666;2022-07-18T11:03:37;34.80;16.80
33988;DHT22;37428;53.580;-1.666;2022-07-18T11:06:56;34.80;15.40
33988;DHT22;37428;53.580;-1.666;2022-07-18T11:09:58;35.10;15.30
33988;DHT22;37428;53.580;-1.666;2022-07-18T11:13:21;35.30;14.00
33988;DHT22;37428;53.580;-1.666;2022-07-18T11:16:25;35.40;14.00
33988;DHT22;37428;53.580;-1.666;2022-07-18T11:19:42;35.60;13.10
33988;DHT22;37428;53.580;-1.666;2022-07-18T11:22:44;35.50;12.70
33988;DHT22;37428;53.580;-1.666;2022-07-18T11:25:51;35.60;12.30
33988;DHT22;37428;53.580;-1.666;2022-07-18T11:28:59;35.70;12.40
33988;DHT22;37428;53.580;-1.666;2022-07-18T11:32:03;35.70;13.00
33988;DHT22;37428;53.580;-1.666;2022-07-18T11:35:07;36.00;13.50
33988;DHT22;37428;53.580;-1.666;2022-07-18T11:38:10;36.20;12.20
33988;DHT22;37428;53.580;-1.666;2022-07-18T11:41:13;36.20;12.50
33988;DHT22;37428;53.580;-1.666;2022-07-18T11:44:17;36.30;12.60
33988;DHT22;37428;53.580;-1.666;2022-07-18T11:47:23;36.30;12.70
33988;DHT22;37428;53.580;-1.666;2022-07-18T11:50:35;36.40;11.30
33988;DHT22;37428;53.580;-1.666;2022-07-18T11:53:42;36.50;10.30
33988;DHT22;37428;53.580;-1.666;2022-07-18T11:56:46;36.80;11.80
33988;DHT22;37428;53.580;-1.666;2022-07-18T11:59:51;36.90;9.90
33988;DHT22;37428;53.580;-1.666;2022-07-18T12:03:13;37.10;12.00
33988;DHT22;37428;53.580;-1.666;2022-07-18T12:06:18;37.10;10.70
33988;DHT22;37428;53.580;-1.666;2022-07-18T12:09:26;37.20;11.50
33988;DHT22;37428;53.580;-1.666;2022-07-18T12:12:35;37.20;12.20
33988;DHT22;37428;53.580;-1.666;2022-07-18T12:15:39;37.30;12.30
33988;DHT22;37428;53.580;-1.666;2022-07-18T12:18:49;37.20;12.80
33988;DHT22;37428;53.580;-1.666;2022-07-18T12:21:54;37.20;13.40
33988;DHT22;37428;53.580;-1.666;2022-07-18T12:24:57;37.50;13.20
33988;DHT22;37428;53.580;-1.666;2022-07-18T12:28:12;37.60;12.70
33988;DHT22;37428;53.580;-1.666;2022-07-18T12:31:36;37.70;12.30
33988;DHT22;37428;53.580;-1.666;2022-07-18T12:34:53;37.70;12.00
33988;DHT22;37428;53.580;-1.666;2022-07-18T12:37:57;37.90;12.80
33988;DHT22;37428;53.580;-1.666;2022-07-18T12:41:00;38.10;13.70
33988;DHT22;37428;53.580;-1.666;2022-07-18T12:44:04;38.30;11.80
33988;DHT22;37428;53.580;-1.666;2022-07-18T12:47:06;38.20;11.20
33988;DHT22;37428;53.580;-1.666;2022-07-18T12:50:10;38.10;12.80
33988;DHT22;37428;53.580;-1.666;2022-07-18T12:53:12;38.20;12.70
33988;DHT22;37428;53.580;-1.666;2022-07-18T12:56:15;38.20;12.90
33988;DHT22;37428;53.580;-1.666;2022-07-18T12:59:17;38.30;12.30
33988;DHT22;37428;53.580;-1.666;2022-07-18T13:02:19;38.40;13.90
33988;DHT22;37428;53.580;-1.666;2022-07-18T13:05:27;38.60;14.00
33988;DHT22;37428;53.580;-1.666;2022-07-18T13:08:29;38.80;12.80
33988;DHT22;37428;53.580;-1.666;2022-07-18T13:11:31;39.00;13.70
33988;DHT22;37428;53.580;-1.666;2022-07-18T13:14:34;39.00;13.10
33988;DHT22;37428;53.580;-1.666;2022-07-18T13:17:37;39.30;13.00
33988;DHT22;37428;53.580;-1.666;2022-07-18T13:20:42;39.40;13.40
33988;DHT22;37428;53.580;-1.666;2022-07-18T13:23:44;39.50;12.90
33988;DHT22;37428;53.580;-1.666;2022-07-18T13:26:46;39.50;12.30
33988;DHT22;37428;53.580;-1.666;2022-07-18T13:29:48;39.30;12.30
33988;DHT22;37428;53.580;-1.666;2022-07-18T13:32:51;39.30;12.30
33988;DHT22;37428;53.580;-1.666;2022-07-18T13:35:55;39.40;12.80
33988;DHT22;37428;53.580;-1.666;2022-07-18T13:38:57;39.50;11.80
33988;DHT22;37428;53.580;-1.666;2022-07-18T13:42:01;39.30;12.40
33988;DHT22;37428;53.580;-1.666;2022-07-18T13:45:07;39.50;12.50
33988;DHT22;37428;53.580;-1.666;2022-07-18T13:48:09;39.70;12.10
33988;DHT22;37428;53.580;-1.666;2022-07-18T13:51:13;39.70;12.30
33988;DHT22;37428;53.580;-1.666;2022-07-18T13:54:15;39.70;12.40
33988;DHT22;37428;53.580;-1.666;2022-07-18T13:57:19;39.40;13.00
33988;DHT22;37428;53.580;-1.666;2022-07-18T14:00:21;39.60;13.60
33988;DHT22;37428;53.580;-1.666;2022-07-18T14:03:26;39.60;13.60
33988;DHT22;37428;53.580;-1.666;2022-07-18T14:06:29;39.80;14.40
33988;DHT22;37428;53.580;-1.666;2022-07-18T14:09:57;39.90;13.40
33988;DHT22;37428;53.580;-1.666;2022-07-18T14:13:00;40.10;14.20
33988;DHT22;37428;53.580;-1.666;2022-07-18T14:16:02;40.10;14.10
33988;DHT22;37428;53.580;-1.666;2022-07-18T14:19:08;40.10;14.10
33988;DHT22;37428;53.580;-1.666;2022-07-18T14:22:22;40.10;14.80
33988;DHT22;37428;53.580;-1.666;2022-07-18T14:25:25;40.20;13.50
33988;DHT22;37428;53.580;-1.666;2022-07-18T14:28:29;40.20;13.60
33988;DHT22;37428;53.580;-1.666;2022-07-18T14:31:31;40.10;13.30
33988;DHT22;37428;53.580;-1.666;2022-07-18T14:34:35;40.20;13.40
33988;DHT22;37428;53.580;-1.666;2022-07-18T14:37:47;40.10;13.70
33988;DHT22;37428;53.580;-1.666;2022-07-18T14:40:50;39.90;14.50
33988;DHT22;37428;53.580;-1.666;2022-07-18T14:44:09;40.00;14.50
33988;DHT22;37428;53.580;-1.666;2022-07-18T14:47:24;39.80;13.90
33988;DHT22;37428;53.580;-1.666;2022-07-18T14:50:50;39.70;14.40
33988;DHT22;37428;53.580;-1.666;2022-07-18T14:53:55;39.50;14.40
33988;DHT22;37428;53.580;-1.666;2022-07-18T14:56:57;39.40;14.20
33988;DHT22;37428;53.580;-1.666;2022-07-18T15:00:07;39.50;14.10
33988;DHT22;37428;53.580;-1.666;2022-07-18T15:03:09;39.70;14.80
33988;DHT22;37428;53.580;-1.666;2022-07-18T15:06:26;39.70;14.90
33988;DHT22;37428;53.580;-1.666;2022-07-18T15:09:44;39.50;14.20
33988;DHT22;37428;53.580;-1.666;2022-07-18T15:13:02;39.50;14.70
33988;DHT22;37428;53.580;-1.666;2022-07-18T15:16:15;39.60;13.80
33988;DHT22;37428;53.580;-1.666;2022-07-18T15:19:17;39.60;14.30
33988;DHT22;37428;53.580;-1.666;2022-07-18T15:22:19;39.30;14.80
33988;DHT22;37428;53.580;-1.666;2022-07-18T15:25:23;39.40;14.60
33988;DHT22;37428;53.580;-1.666;2022-07-18T15:28:27;39.40;14.30
33988;DHT22;37428;53.580;-1.666;2022-07-18T15:31:29;39.50;15.10
33988;DHT22;37428;53.580;-1.666;2022-07-18T15:34:33;39.60;14.30
33988;DHT22;37428;53.580;-1.666;2022-07-18T15:37:49;39.50;13.80
33988;DHT22;37428;53.580;-1.666;2022-07-18T15:40:54;39.50;14.40
33988;DHT22;37428;53.580;-1.666;2022-07-18T15:43:58;39.50;14.10
33988;DHT22;37428;53.580;-1.666;2022-07-18T15:47:05;39.20;13.80
33988;DHT22;37428;53.580;-1.666;2022-07-18T15:50:08;38.90;13.80
33988;DHT22;37428;53.580;-1.666;2022-07-18T15:53:13;38.50;14.00
33988;DHT22;37428;53.580;-1.666;2022-07-18T15:56:34;38.30;13.70
33988;DHT22;37428;53.580;-1.666;2022-07-18T15:59:40;38.40;14.30
33988;DHT22;37428;53.580;-1.666;2022-07-18T16:02:44;38.40;14.50
33988;DHT22;37428;53.580;-1.666;2022-07-18T16:05:48;38.40;14.80
33988;DHT22;37428;53.580;-1.666;2022-07-18T16:08:53;38.30;15.10
33988;DHT22;37428;53.580;-1.666;2022-07-18T16:12:01;38.30;15.10
33988;DHT22;37428;53.580;-1.666;2022-07-18T16:15:04;38.20;15.30
33988;DHT22;37428;53.580;-1.666;2022-07-18T16:18:06;37.90;15.00
33988;DHT22;37428;53.580;-1.666;2022-07-18T16:21:12;37.60;15.20
33988;DHT22;37428;53.580;-1.666;2022-07-18T16:24:16;37.50;15.50
33988;DHT22;37428;53.580;-1.666;2022-07-18T16:27:19;37.10;16.30
33988;DHT22;37428;53.580;-1.666;2022-07-18T16:30:22;37.10;16.20
33988;DHT22;37428;53.580;-1.666;2022-07-18T16:33:24;36.90;16.60
33988;DHT22;37428;53.580;-1.666;2022-07-18T16:36:28;36.80;17.00
33988;DHT22;37428;53.580;-1.666;2022-07-18T16:39:40;36.70;17.50
33988;DHT22;37428;53.580;-1.666;2022-07-18T16:42:44;36.60;17.60
33988;DHT22;37428;53.580;-1.666;2022-07-18T16:45:49;36.70;17.80
33988;DHT22;37428;53.580;-1.666;2022-07-18T16:48:55;36.70;18.00
33988;DHT22;37428;53.580;-1.666;2022-07-18T16:51:59;36.80;17.90
33988;DHT22;37428;53.580;-1.666;2022-07-18T16:55:04;36.90;17.90
33988;DHT22;37428;53.580;-1.666;2022-07-18T16:58:13;36.90;17.80
33988;DHT22;37428;53.580;-1.666;2022-07-18T17:01:17;36.90;17.70
33988;DHT22;37428;53.580;-1.666;2022-07-18T17:04:22;36.90;17.30
33988;DHT22;37428;53.580;-1.666;2022-07-18T17:07:26;36.80;17.10
33988;DHT22;37428;53.580;-1.666;2022-07-18T17:10:31;36.60;16.90
33988;DHT22;37428;53.580;-1.666;2022-07-18T17:13:35;36.40;17.00
33988;DHT22;37428;53.580;-1.666;2022-07-18T17:16:38;36.20;16.60
33988;DHT22;37428;53.580;-1.666;2022-07-18T17:19:41;36.00;17.00
33988;DHT22;37428;53.580;-1.666;2022-07-18T17:22:44;35.90;17.40
33988;DHT22;37428;53.580;-1.666;2022-07-18T17:25:47;35.80;17.10
33988;DHT22;37428;53.580;-1.666;2022-07-18T17:28:51;35.70;17.60
33988;DHT22;37428;53.580;-1.666;2022-07-18T17:31:53;35.80;17.80
33988;DHT22;37428;53.580;-1.666;2022-07-18T17:34:56;35.80;17.60
33988;DHT22;37428;53.580;-1.666;2022-07-18T17:37:59;35.70;18.10
33988;DHT22;37428;53.580;-1.666;2022-07-18T17:41:02;35.50;18.20
33988;DHT22;37428;53.580;-1.666;2022-07-18T17:44:07;35.50;18.70
33988;DHT22;37428;53.580;-1.666;2022-07-18T17:47:10;35.50;19.10
33988;DHT22;37428;53.580;-1.666;2022-07-18T17:50:20;35.50;19.30
33988;DHT22;37428;53.580;-1.666;2022-07-18T17:53:23;35.50;19.50
33988;DHT22;37428;53.580;-1.666;2022-07-18T17:56:28;35.50;19.60
33988;DHT22;37428;53.580;-1.666;2022-07-18T17:59:34;35.50;19.50
33988;DHT22;37428;53.580;-1.666;2022-07-18T18:02:37;35.40;19.20
33988;DHT22;37428;53.580;-1.666;2022-07-18T18:05:40;35.40;19.60
33988;DHT22;37428;53.580;-1.666;2022-07-18T18:08:42;35.40;19.80
33988;DHT22;37428;53.580;-1.666;2022-07-18T18:11:45;35.40;19.90
33988;DHT22;37428;53.580;-1.666;2022-07-18T18:14:48;35.30;20.20
33988;DHT22;37428;53.580;-1.666;2022-07-18T18:17:51;35.30;20.50
33988;DHT22;37428;53.580;-1.666;2022-07-18T18:20:53;35.30;20.70
33988;DHT22;37428;53.580;-1.666;2022-07-18T18:23:57;35.20;20.80
33988;DHT22;37428;53.580;-1.666;2022-07-18T18:27:03;35.10;20.50
33988;DHT22;37428;53.580;-1.666;2022-07-18T18:30:08;35.00;20.90
33988;DHT22;37428;53.580;-1.666;2022-07-18T18:33:11;35.00;20.90
33988;DHT22;37428;53.580;-1.666;2022-07-18T18:36:15;34.90;21.00
33988;DHT22;37428;53.580;-1.666;2022-07-18T18:39:18;34.70;21.30
33988;DHT22;37428;53.580;-1.666;2022-07-18T18:42:20;34.70;21.80
33988;DHT22;37428;53.580;-1.666;2022-07-18T18:45:25;34.70;22.10
33988;DHT22;37428;53.580;-1.666;2022-07-18T18:48:29;34.60;22.10
33988;DHT22;37428;53.580;-1.666;2022-07-18T18:51:32;34.60;23.00
33988;DHT22;37428;53.580;-1.666;2022-07-18T18:54:34;34.50;23.00
33988;DHT22;37428;53.580;-1.666;2022-07-18T18:57:36;34.50;23.00
33988;DHT22;37428;53.580;-1.666;2022-07-18T19:00:40;34.40;22.80
33988;DHT22;37428;53.580;-1.666;2022-07-18T19:03:42;34.30;23.00
33988;DHT22;37428;53.580;-1.666;2022-07-18T19:06:46;34.30;23.20
33988;DHT22;37428;53.580;-1.666;2022-07-18T19:09:49;34.10;22.70
33988;DHT22;37428;53.580;-1.666;2022-07-18T19:12:51;34.10;22.80
33988;DHT22;37428;53.580;-1.666;2022-07-18T19:15:55;34.10;23.50
33988;DHT22;37428;53.580;-1.666;2022-07-18T19:19:00;34.00;24.10